Time;durP1;ratioP1;P1;durP2;ratioP2;P2;SDS_P1;SDS_P2;PMS_P1;PMS_P2;Temp;Humidity;BMP_temperature;BMP_pressure;BME280_temperature;BME280_humidity;BME280_pressure;Samples;Min_cycle;Max_cycle;Signal;HPM_P1;HPM_P2
2023/06/03 00:01:29;;;;;;;3.75;1.33;;;15.80;54.60;;;;;;5091996;28;20083;-68
2023/06/03 00:03:55;;;;;;;2.28;1.27;;;15.80;54.50;;;;;;5114413;27;20078;-68
2023/06/03 00:06:20;;;;;;;4.00;1.40;;;15.80;54.50;;;;;;5091680;28;20040;-68
2023/06/03 00:08:46;;;;;;;3.22;1.40;;;15.70;54.60;;;;;;5074731;28;20032;-68
2023/06/03 00:11:13;;;;;;;2.80;1.40;;;15.60;54.70;;;;;;5091833;28;20040;-68
2023/06/03 00:13:39;;;;;;;3.95;1.55;;;15.70;54.80;;;;;;5091955;28;20114;-68
2023/06/03 00:16:06;;;;;;;2.70;1.17;;;15.60;54.80;;;;;;5091019;28;20042;-68
2023/06/03 00:18:32;;;;;;;3.47;1.30;;;15.60;54.70;;;;;;5055461;28;20127;-68
2023/06/03 00:20:57;;;;;;;2.67;1.33;;;15.50;54.50;;;;;;5121786;27;20032;-68
2023/06/03 00:23:24;;;;;;;2.05;1.25;;;15.50;54.20;;;;;;5119744;27;20040;-68
2023/06/03 00:25:50;;;;;;;1.98;1.08;;;15.50;54.00;;;;;;5091423;28;20038;-68
2023/06/03 00:28:15;;;;;;;3.15;1.10;;;15.40;54.00;;;;;;5091014;28;20036;-68
2023/06/03 00:30:41;;;;;;;2.25;0.85;;;15.40;54.10;;;;;;5124641;27;20043;-68
2023/06/03 00:33:07;;;;;;;2.80;1.17;;;15.40;54.20;;;;;;5092369;28;20040;-68
2023/06/03 00:35:33;;;;;;;2.17;1.27;;;15.30;54.00;;;;;;5090946;28;20081;-68
2023/06/03 00:38:00;;;;;;;2.35;1.10;;;15.30;53.90;;;;;;5091109;28;20028;-68
2023/06/03 00:40:25;;;;;;;2.35;1.40;;;15.30;53.90;;;;;;5074404;28;20040;-68
2023/06/03 00:42:51;;;;;;;2.60;1.00;;;15.20;53.70;;;;;;5116806;27;20051;-68
2023/06/03 00:45:17;;;;;;;4.40;1.20;;;15.20;53.80;;;;;;5074232;28;20406;-68
2023/06/03 00:47:43;;;;;;;3.03;1.33;;;15.20;53.80;;;;;;5091009;28;20097;-68
2023/06/03 00:50:10;;;;;;;3.47;1.13;;;15.10;53.50;;;;;;5090856;28;20111;-68
2023/06/03 00:52:38;;;;;;;2.03;1.10;;;15.10;53.70;;;;;;5073950;28;20048;-68
2023/06/03 00:55:04;;;;;;;2.50;0.75;;;15.10;53.60;;;;;;5091347;28;20422;-68
2023/06/03 00:57:30;;;;;;;3.80;1.20;;;15.00;53.20;;;;;;5090488;28;20494;-68
2023/06/03 00:59:57;;;;;;;2.58;0.90;;;15.00;53.40;;;;;;5120336;27;20048;-68
2023/06/03 01:02:23;;;;;;;3.05;1.10;;;15.00;53.40;;;;;;5122760;27;20032;-68
2023/06/03 01:04:50;;;;;;;2.65;1.30;;;14.90;53.40;;;;;;5114777;27;20094;-68
2023/06/03 01:07:50;;;;;;;2.20;0.88;;;14.90;53.20;;;;;;5090613;28;20122;-68
2023/06/03 01:10:52;;;;;;;1.40;0.90;;;14.90;53.30;;;;;;5118551;27;20036;-68
2023/06/03 01:13:22;;;;;;;2.83;1.10;;;14.90;53.50;;;;;;5111985;27;20033;-68
2023/06/03 01:15:54;;;;;;;1.55;0.85;;;14.80;53.60;;;;;;5117484;27;20045;-68
2023/06/03 01:18:20;;;;;;;2.88;1.00;;;14.80;53.60;;;;;;5091686;28;20043;-68
2023/06/03 01:20:48;;;;;;;2.17;0.90;;;14.70;53.70;;;;;;5074184;28;20048;-68
2023/06/03 01:23:28;;;;;;;3.53;1.38;;;14.70;53.60;;;;;;5091792;28;20127;-68
2023/06/03 01:25:56;;;;;;;1.80;0.93;;;14.70;53.50;;;;;;5107722;28;20434;-68
2023/06/03 01:28:23;;;;;;;1.92;1.00;;;14.70;53.70;;;;;;5090339;28;20483;-68
2023/06/03 01:30:50;;;;;;;1.70;1.00;;;14.60;53.80;;;;;;5090590;28;20036;-68
2023/06/03 01:33:19;;;;;;;4.22;1.05;;;14.60;53.70;;;;;;5075362;28;20039;-68
2023/06/03 01:35:46;;;;;;;3.67;1.15;;;14.60;53.50;;;;;;5128553;27;20055;-68
2023/06/03 01:38:12;;;;;;;2.83;1.38;;;14.50;53.10;;;;;;5118835;27;20048;-68
2023/06/03 01:40:39;;;;;;;2.58;0.93;;;14.50;53.40;;;;;;5094801;28;20125;-68
2023/06/03 01:43:05;;;;;;;2.90;1.02;;;14.50;53.50;;;;;;5100904;28;20483;-68
2023/06/03 01:45:31;;;;;;;2.47;1.00;;;14.40;53.50;;;;;;5096372;28;20052;-68
2023/06/03 01:47:57;;;;;;;2.05;0.88;;;14.40;53.40;;;;;;5117957;27;20089;-68
2023/06/03 01:50:23;;;;;;;1.80;1.00;;;14.40;53.60;;;;;;5127616;27;20048;-68
2023/06/03 01:52:50;;;;;;;2.53;0.90;;;14.30;53.60;;;;;;5094107;28;20052;-68
2023/06/03 01:55:16;;;;;;;3.13;1.23;;;14.30;53.50;;;;;;5077498;28;20551;-68
2023/06/03 01:57:42;;;;;;;1.77;0.80;;;14.30;53.50;;;;;;5095690;28;20040;-68
2023/06/03 02:00:11;;;;;;;1.38;0.82;;;14.20;53.40;;;;;;5114729;27;20120;-68
2023/06/03 02:02:37;;;;;;;2.80;1.15;;;14.20;53.40;;;;;;5122834;27;20043;-68
2023/06/03 02:05:03;;;;;;;2.45;1.20;;;14.20;53.40;;;;;;5120972;27;20537;-68
2023/06/03 02:07:32;;;;;;;1.88;1.30;;;14.10;53.50;;;;;;5121579;27;20097;-68
2023/06/03 02:09:58;;;;;;;1.70;1.20;;;14.10;53.70;;;;;;5126078;27;20040;-68
2023/06/03 02:12:24;;;;;;;2.53;0.95;;;14.10;53.60;;;;;;5094001;28;20501;-68
2023/06/03 02:14:59;;;;;;;2.65;1.02;;;14.10;53.70;;;;;;5077376;28;20107;-68
2023/06/03 02:17:26;;;;;;;2.00;1.10;;;14.00;53.60;;;;;;5094099;28;20079;-68
2023/06/03 02:19:53;;;;;;;2.45;1.00;;;14.00;53.70;;;;;;5093855;28;20101;-68
2023/06/03 02:22:19;;;;;;;3.20;1.08;;;14.00;53.70;;;;;;5113263;27;20441;-68
2023/06/03 02:24:48;;;;;;;1.88;1.10;;;13.90;53.50;;;;;;5093736;28;20040;-68
2023/06/03 02:27:20;;;;;;;1.90;0.75;;;13.90;53.70;;;;;;5127298;27;20479;-68
2023/06/03 02:29:50;;;;;;;1.63;1.00;;;13.90;53.80;;;;;;5093767;28;20105;-68
2023/06/03 02:32:17;;;;;;;1.60;0.93;;;13.80;53.80;;;;;;5077201;28;20036;-68
2023/06/03 02:34:43;;;;;;;1.67;0.90;;;13.80;53.70;;;;;;5094073;28;20040;-68
2023/06/03 02:37:10;;;;;;;1.92;1.02;;;13.80;53.70;;;;;;5093478;28;20166;-68
2023/06/03 02:39:36;;;;;;;1.73;1.08;;;13.80;53.70;;;;;;5122030;27;20040;-68
2023/06/03 02:42:03;;;;;;;1.73;1.00;;;13.70;53.70;;;;;;5122393;27;20046;-68
2023/06/03 02:44:29;;;;;;;2.13;1.00;;;13.70;53.70;;;;;;5076778;28;20100;-68
2023/06/03 02:46:55;;;;;;;2.00;1.30;;;13.70;53.40;;;;;;5125904;27;20417;-68
2023/06/03 02:49:21;;;;;;;3.15;1.10;;;13.60;53.30;;;;;;5094750;28;20047;-68
2023/06/03 02:51:46;;;;;;;1.95;0.80;;;13.60;53.40;;;;;;5115691;27;20403;-68
2023/06/03 02:54:12;;;;;;;1.85;1.08;;;13.60;53.40;;;;;;5076602;28;20109;-68
2023/06/03 02:56:38;;;;;;;2.78;1.00;;;13.60;53.50;;;;;;5116753;27;20047;-68
2023/06/03 02:59:05;;;;;;;1.90;1.00;;;13.50;53.60;;;;;;5076209;28;20048;-68
2023/06/03 03:01:31;;;;;;;2.47;1.10;;;13.50;53.70;;;;;;5090797;28;20040;-68
2023/06/03 03:03:57;;;;;;;1.80;1.00;;;13.50;53.70;;;;;;5093680;28;20119;-68
2023/06/03 03:06:24;;;;;;;2.42;1.20;;;13.40;53.90;;;;;;5094148;28;20078;-68
2023/06/03 03:08:53;;;;;;;1.77;1.13;;;13.40;54.00;;;;;;5092784;28;20048;-68
2023/06/03 03:11:19;;;;;;;2.05;1.20;;;13.30;53.90;;;;;;5114085;27;20088;-68
2023/06/03 03:13:45;;;;;;;2.78;0.98;;;13.30;53.90;;;;;;5093120;28;20036;-68
2023/06/03 03:16:12;;;;;;;2.38;1.20;;;13.30;53.90;;;;;;5121107;27;20071;-68
2023/06/03 03:18:39;;;;;;;1.52;1.20;;;13.30;53.90;;;;;;5076482;28;20687;-68
2023/06/03 03:21:05;;;;;;;3.25;1.10;;;13.20;53.80;;;;;;5090447;28;20036;-68
2023/06/03 03:23:31;;;;;;;2.00;1.10;;;13.20;53.80;;;;;;5092777;28;20085;-68
2023/06/03 03:25:57;;;;;;;1.83;1.10;;;13.20;53.90;;;;;;5119388;27;20395;-68
2023/06/03 03:28:27;;;;;;;2.92;1.20;;;13.10;53.80;;;;;;5092508;28;20059;-68
2023/06/03 03:30:55;;;;;;;2.42;1.05;;;13.10;53.80;;;;;;5092486;28;20048;-68
2023/06/03 03:33:21;;;;;;;1.92;1.20;;;13.10;53.90;;;;;;5092645;28;20028;-68
2023/06/03 03:35:48;;;;;;;4.38;1.50;;;13.00;53.80;;;;;;5092316;28;20377;-68
2023/06/03 03:38:15;;;;;;;3.85;1.70;;;13.00;53.90;;;;;;5092735;28;20024;-68
2023/06/03 03:40:41;;;;;;;2.65;1.10;;;13.00;53.80;;;;;;5126464;27;20542;-68
2023/06/03 03:43:18;;;;;;;2.35;1.20;;;13.00;53.90;;;;;;5123426;27;20044;-68
2023/06/03 03:45:44;;;;;;;2.97;1.55;;;13.00;53.90;;;;;;5092221;28;20052;-68
2023/06/03 03:48:14;;;;;;;2.83;1.40;;;12.90;53.80;;;;;;5093274;28;20036;-68
2023/06/03 03:50:46;;;;;;;2.33;1.05;;;12.90;54.00;;;;;;5075343;28;20120;-68
2023/06/03 03:53:16;;;;;;;3.65;1.30;;;12.90;53.90;;;;;;5092438;28;20050;-68
2023/06/03 03:55:44;;;;;;;3.47;1.60;;;12.90;53.60;;;;;;5091211;28;20032;-68
2023/06/03 03:58:25;;;;;;;2.10;1.08;;;12.80;53.70;;;;;;5115713;27;20112;-65
2023/06/03 04:00:51;;;;;;;2.75;1.10;;;12.80;53.80;;;;;;5091568;28;20105;-66
2023/06/03 04:03:19;;;;;;;2.03;1.10;;;12.80;53.80;;;;;;5074581;28;20039;-66
2023/06/03 04:05:47;;;;;;;2.70;1.00;;;12.80;53.80;;;;;;5091594;28;20047;-65
2023/06/03 04:08:40;;;;;;;2.60;1.20;;;12.70;54.00;;;;;;5091758;28;20047;-65
2023/06/03 04:11:15;;;;;;;2.03;1.00;;;12.70;53.50;;;;;;5085589;28;20052;-65
2023/06/03 04:13:41;;;;;;;1.88;1.05;;;12.70;53.80;;;;;;5091746;28;20075;-66
2023/06/03 04:16:11;;;;;;;3.42;1.55;;;12.70;54.10;;;;;;5075156;28;20059;-66
2023/06/03 04:18:41;;;;;;;3.88;1.58;;;12.70;54.20;;;;;;5116832;27;20039;-66
2023/06/03 04:21:18;;;;;;;3.00;1.00;;;12.70;54.00;;;;;;5091520;28;20050;-66
2023/06/03 04:23:43;;;;;;;3.22;1.85;;;12.70;54.00;;;;;;5119926;27;20102;-66
2023/06/03 04:26:11;;;;;;;1.88;1.10;;;12.70;54.20;;;;;;5091452;28;20036;-66
2023/06/03 04:28:39;;;;;;;1.77;1.10;;;12.70;53.90;;;;;;5075339;28;20140;-66
2023/06/03 04:31:06;;;;;;;1.92;1.08;;;12.60;53.90;;;;;;5074614;28;20040;-66
2023/06/03 04:33:32;;;;;;;3.58;1.38;;;12.60;53.90;;;;;;5123203;27;20036;-66
2023/06/03 04:35:58;;;;;;;2.63;1.38;;;12.60;53.70;;;;;;5091353;28;20055;-66
2023/06/03 04:38:24;;;;;;;3.83;1.20;;;12.60;53.50;;;;;;5090903;28;20085;-66
2023/06/03 04:40:49;;;;;;;3.58;1.55;;;12.50;53.50;;;;;;5091515;28;20090;-66
2023/06/03 04:43:18;;;;;;;3.28;1.05;;;12.50;53.60;;;;;;5091017;28;20040;-66
2023/06/03 04:45:45;;;;;;;1.75;1.05;;;12.50;53.30;;;;;;5124351;27;20031;-66
2023/06/03 04:48:13;;;;;;;2.63;1.02;;;12.50;53.50;;;;;;5115225;27;20044;-66
2023/06/03 04:50:43;;;;;;;1.98;0.88;;;12.40;54.00;;;;;;5090963;28;20040;-66
2023/06/03 04:53:12;;;;;;;1.55;0.95;;;12.40;54.20;;;;;;5074042;28;20068;-66
2023/06/03 04:55:43;;;;;;;2.47;1.02;;;12.40;54.10;;;;;;5091210;28;20047;-65
2023/06/03 04:58:09;;;;;;;2.15;1.20;;;12.30;54.00;;;;;;5113374;27;20047;-65
2023/06/03 05:00:36;;;;;;;3.05;1.20;;;12.40;54.30;;;;;;5090925;28;20044;-65
2023/06/03 05:03:08;;;;;;;2.22;1.40;;;12.30;54.20;;;;;;5119488;27;20055;-65
2023/06/03 05:05:35;;;;;;;3.45;1.25;;;12.30;54.20;;;;;;5092617;28;20039;-65
2023/06/03 05:08:01;;;;;;;2.63;1.20;;;12.30;54.60;;;;;;5091522;28;20035;-65
2023/06/03 05:10:27;;;;;;;2.83;1.20;;;12.30;54.90;;;;;;5090138;28;20111;-65
2023/06/03 05:12:53;;;;;;;2.45;1.17;;;12.30;54.70;;;;;;5091895;28;20127;-65
2023/06/03 05:15:19;;;;;;;4.20;1.50;;;12.30;55.30;;;;;;5123878;27;20093;-65
2023/06/03 05:17:45;;;;;;;2.83;1.40;;;12.50;55.60;;;;;;5117215;27;20047;-65
2023/06/03 05:20:11;;;;;;;2.20;0.90;;;12.70;55.60;;;;;;5090618;28;20048;-65
2023/06/03 05:22:37;;;;;;;2.83;1.27;;;13.10;55.40;;;;;;5120077;27;20076;-65
2023/06/03 05:25:04;;;;;;;2.90;1.10;;;13.40;54.20;;;;;;5091086;28;20459;-65
2023/06/03 05:27:30;;;;;;;2.28;1.05;;;13.70;53.20;;;;;;5090213;28;20063;-65
2023/06/03 05:29:55;;;;;;;4.15;1.40;;;14.00;52.60;;;;;;5090612;28;20040;-66
2023/06/03 05:32:21;;;;;;;2.97;1.27;;;14.30;51.60;;;;;;5073763;28;20471;-65
2023/06/03 05:34:47;;;;;;;4.22;1.40;;;14.50;50.40;;;;;;5073770;28;20063;-65
2023/06/03 05:37:13;;;;;;;4.95;1.35;;;14.70;50.20;;;;;;5115881;28;20051;-65
2023/06/03 05:39:39;;;;;;;3.20;1.33;;;14.80;49.40;;;;;;5121608;28;20389;-65
2023/06/03 05:42:05;;;;;;;3.70;1.35;;;15.00;49.50;;;;;;5073866;28;20051;-65
2023/06/03 05:44:30;;;;;;;2.75;1.10;;;15.30;49.50;;;;;;5108251;27;20492;-65
2023/06/03 05:46:56;;;;;;;2.55;1.38;;;15.50;48.40;;;;;;5090259;28;20051;-65
2023/06/03 05:49:22;;;;;;;3.22;1.42;;;15.70;48.20;;;;;;5113956;28;20117;-65
2023/06/03 05:51:47;;;;;;;2.28;1.10;;;15.80;47.40;;;;;;5090146;28;20048;-66
2023/06/03 05:54:13;;;;;;;3.65;1.52;;;16.00;47.10;;;;;;5090045;28;20044;-65
2023/06/03 05:56:39;;;;;;;2.78;1.00;;;16.10;46.50;;;;;;5089016;28;20103;-65
2023/06/03 05:59:05;;;;;;;3.53;1.23;;;16.20;46.10;;;;;;5089867;28;20044;-65
2023/06/03 06:01:33;;;;;;;4.22;1.50;;;16.50;45.90;;;;;;5123475;28;20051;-66
2023/06/03 06:03:59;;;;;;;4.47;1.60;;;16.70;45.00;;;;;;5074532;28;20392;-66
2023/06/03 06:06:25;;;;;;;2.60;1.48;;;16.80;45.00;;;;;;5123325;28;20510;-65
2023/06/03 06:08:51;;;;;;;1.95;1.00;;;17.00;44.60;;;;;;5073749;28;20048;-66
2023/06/03 06:11:17;;;;;;;3.33;1.15;;;17.00;44.00;;;;;;5090387;28;20036;-67
2023/06/03 06:13:43;;;;;;;2.58;1.02;;;17.20;44.10;;;;;;5122661;28;20043;-68
2023/06/03 06:16:09;;;;;;;2.65;1.60;;;17.40;43.80;;;;;;5115828;28;20033;-68
2023/06/03 06:18:35;;;;;;;4.10;1.15;;;17.60;43.30;;;;;;5121262;27;20044;-68
2023/06/03 06:21:01;;;;;;;3.60;1.48;;;17.70;42.90;;;;;;5094041;28;20077;-68
2023/06/03 06:23:27;;;;;;;2.28;1.27;;;17.90;42.90;;;;;;5077134;28;20081;-68
2023/06/03 06:25:55;;;;;;;3.75;1.55;;;18.00;43.10;;;;;;5093895;28;20040;-68
2023/06/03 06:28:24;;;;;;;2.92;1.45;;;18.10;42.10;;;;;;5121181;27;20055;-68
2023/06/03 06:31:01;;;;;;;3.03;1.15;;;18.10;41.40;;;;;;5093873;28;20028;-68
2023/06/03 06:33:28;;;;;;;2.70;1.20;;;18.00;41.10;;;;;;5076518;28;20073;-68
2023/06/03 06:35:54;;;;;;;3.25;1.15;;;18.00;41.90;;;;;;5093360;28;20111;-68
2023/06/03 06:38:20;;;;;;;4.10;1.27;;;18.00;42.30;;;;;;5095054;28;20150;-68
2023/06/03 06:40:49;;;;;;;2.95;1.30;;;18.10;43.00;;;;;;5127255;27;20036;-68
2023/06/03 06:43:16;;;;;;;4.35;1.08;;;18.20;43.00;;;;;;5094659;28;20040;-68
2023/06/03 06:45:42;;;;;;;3.13;1.15;;;18.50;43.10;;;;;;5076886;28;20047;-68
2023/06/03 06:48:13;;;;;;;1.92;1.10;;;18.90;42.60;;;;;;5112783;27;20124;-68
2023/06/03 06:50:55;;;;;;;5.07;1.40;;;19.30;41.50;;;;;;5093159;28;20039;-68
2023/06/03 06:53:23;;;;;;;1.95;0.85;;;19.60;40.40;;;;;;5123621;27;20051;-68
2023/06/03 06:55:49;;;;;;;1.63;1.08;;;19.80;40.00;;;;;;5093533;28;20036;-68
2023/06/03 06:58:15;;;;;;;3.25;1.10;;;20.00;39.50;;;;;;5093307;28;20044;-68
2023/06/03 07:00:43;;;;;;;4.13;1.00;;;20.20;38.80;;;;;;5094481;28;20051;-68
2023/06/03 07:03:11;;;;;;;2.08;0.60;;;20.30;38.40;;;;;;5075875;28;20043;-68
2023/06/03 07:05:37;;;;;;;3.83;1.02;;;20.40;37.60;;;;;;5092258;28;20050;-68
2023/06/03 07:08:03;;;;;;;3.00;0.93;;;20.30;36.60;;;;;;5125572;27;20122;-68
2023/06/03 07:10:28;;;;;;;6.10;1.60;;;20.40;36.10;;;;;;5092606;28;20093;-68
2023/06/03 07:12:55;;;;;;;1.83;0.88;;;20.30;35.50;;;;;;5126397;27;20036;-68
2023/06/03 07:15:22;;;;;;;2.28;0.80;;;20.40;35.80;;;;;;5093984;28;20051;-68
2023/06/03 07:17:52;;;;;;;2.60;0.73;;;20.40;35.90;;;;;;5093083;28;20106;-68
2023/06/03 07:20:32;;;;;;;1.95;1.00;;;20.40;36.10;;;;;;5075753;28;20048;-68
2023/06/03 07:22:58;;;;;;;2.13;0.90;;;20.40;35.20;;;;;;5118223;27;20055;-68
2023/06/03 07:25:26;;;;;;;3.10;0.65;;;20.40;35.10;;;;;;5091994;28;20109;-68
2023/06/03 07:27:52;;;;;;;1.80;0.80;;;20.30;34.60;;;;;;5093653;28;20039;-68
2023/06/03 07:30:18;;;;;;;4.28;1.42;;;20.20;34.80;;;;;;5093299;28;20097;-68
2023/06/03 07:32:44;;;;;;;1.65;0.70;;;20.10;34.80;;;;;;5127562;27;20055;-68
2023/06/03 07:35:17;;;;;;;4.07;1.08;;;20.00;34.90;;;;;;5111946;27;20036;-68
2023/06/03 07:37:43;;;;;;;2.70;0.90;;;19.90;34.80;;;;;;5089440;28;20391;-70
2023/06/03 07:40:15;;;;;;;2.72;0.82;;;19.80;35.70;;;;;;5114825;27;20052;-70
2023/06/03 07:42:48;;;;;;;2.55;0.82;;;19.70;35.20;;;;;;5091820;28;20043;-68
2023/06/03 07:45:14;;;;;;;2.90;0.80;;;19.50;35.70;;;;;;5122603;27;20121;-68
2023/06/03 07:47:40;;;;;;;3.38;0.93;;;19.50;36.90;;;;;;5122843;27;20036;-68
2023/06/03 07:50:23;;;;;;;5.07;0.98;;;19.50;36.30;;;;;;5091714;28;20039;-68
2023/06/03 07:53:00;;;;;;;3.30;1.00;;;19.70;37.20;;;;;;5091674;28;20048;-68
2023/06/03 07:55:32;;;;;;;2.78;1.05;;;19.80;36.80;;;;;;5112927;27;20039;-68
2023/06/03 07:57:58;;;;;;;2.78;0.93;;;19.90;36.30;;;;;;5101266;27;20036;-68
2023/06/03 08:00:24;;;;;;;3.38;1.05;;;19.90;36.60;;;;;;5092322;28;20479;-68
2023/06/03 08:02:50;;;;;;;3.15;0.80;;;20.00;37.00;;;;;;5092972;28;20139;-68
2023/06/03 08:05:18;;;;;;;3.00;0.85;;;20.00;36.90;;;;;;5075614;28;20050;-68
2023/06/03 08:07:45;;;;;;;1.85;0.98;;;20.00;37.20;;;;;;5092861;28;20119;-68
2023/06/03 08:10:24;;;;;;;2.55;1.30;;;20.10;36.40;;;;;;5092751;28;20048;-68
2023/06/03 08:12:50;;;;;;;2.35;0.80;;;20.20;36.10;;;;;;5092725;28;20591;-68
2023/06/03 08:15:27;;;;;;;2.92;0.90;;;20.20;36.40;;;;;;5092739;28;20040;-68
2023/06/03 08:17:53;;;;;;;2.05;1.10;;;20.30;36.10;;;;;;5092720;28;20036;-68
2023/06/03 08:20:26;;;;;;;2.97;1.17;;;20.30;36.70;;;;;;5092305;28;20044;-68
2023/06/03 08:22:53;;;;;;;1.85;1.00;;;20.40;35.30;;;;;;5092427;28;20536;-68
2023/06/03 08:25:19;;;;;;;2.75;0.80;;;20.40;35.00;;;;;;5092807;28;20058;-68
2023/06/03 08:27:45;;;;;;;2.95;1.20;;;20.40;35.10;;;;;;5092519;28;20549;-68
2023/06/03 08:30:12;;;;;;;4.53;1.42;;;20.30;34.90;;;;;;5092503;28;20104;-68
2023/06/03 08:32:39;;;;;;;4.50;1.00;;;20.30;34.80;;;;;;5075535;28;20109;-68
2023/06/03 08:35:10;;;;;;;2.42;0.80;;;20.20;34.80;;;;;;5092201;28;20101;-68
2023/06/03 08:37:36;;;;;;;3.10;1.15;;;20.10;35.10;;;;;;5108017;27;20045;-68
2023/06/03 08:40:07;;;;;;;3.60;0.95;;;20.00;34.80;;;;;;5092196;28;20058;-68
2023/06/03 08:42:41;;;;;;;1.92;0.70;;;19.90;34.40;;;;;;5091728;28;20093;-68
2023/06/03 08:45:11;;;;;;;1.63;0.75;;;19.80;35.00;;;;;;5092180;28;20040;-68
2023/06/03 08:47:43;;;;;;;1.48;0.70;;;19.70;35.10;;;;;;5092187;28;20048;-68
2023/06/03 08:50:10;;;;;;;2.25;1.00;;;19.70;34.80;;;;;;5093211;28;20387;-68
2023/06/03 08:52:39;;;;;;;3.08;1.05;;;19.60;35.10;;;;;;5125911;27;20052;-68
2023/06/03 08:55:11;;;;;;;3.60;0.73;;;19.70;34.90;;;;;;5126260;27;20048;-68
2023/06/03 08:58:18;;;;;;;2.05;0.60;;;19.70;34.40;;;;;;5126108;27;20039;-68
2023/06/03 09:00:46;;;;;;;1.67;0.80;;;19.80;34.80;;;;;;5075308;28;20499;-68
2023/06/03 09:03:12;;;;;;;2.10;0.70;;;19.80;35.20;;;;;;5114331;27;20487;-69
2023/06/03 09:05:40;;;;;;;1.65;0.60;;;20.00;35.60;;;;;;5090590;28;20188;-69
2023/06/03 09:08:06;;;;;;;2.60;0.60;;;20.10;35.90;;;;;;5091737;28;20101;-69
2023/06/03 09:10:32;;;;;;;1.42;0.88;;;20.40;35.70;;;;;;5091516;28;20051;-69
2023/06/03 09:13:01;;;;;;;1.35;0.60;;;20.50;34.40;;;;;;5074892;28;20039;-69
2023/06/03 09:15:29;;;;;;;2.08;1.00;;;20.60;34.50;;;;;;5091713;28;20048;-69
2023/06/03 09:17:54;;;;;;;2.17;0.60;;;20.60;34.00;;;;;;5110571;28;20360;-69
2023/06/03 09:20:20;;;;;;;2.70;0.75;;;20.70;34.00;;;;;;5092927;28;20122;-69
2023/06/03 09:22:46;;;;;;;2.10;0.73;;;20.80;34.10;;;;;;5091198;28;20040;-69
2023/06/03 09:25:12;;;;;;;2.55;0.70;;;20.90;34.10;;;;;;5107232;28;20131;-70
2023/06/03 09:27:39;;;;;;;3.08;0.75;;;21.10;33.20;;;;;;5092856;28;20114;-69
2023/06/03 09:30:06;;;;;;;1.58;0.68;;;21.20;32.60;;;;;;5125633;28;20059;-69
2023/06/03 09:32:35;;;;;;;4.32;1.20;;;21.20;33.20;;;;;;5125956;28;20044;-66
2023/06/03 09:35:04;;;;;;;2.00;0.60;;;21.30;33.30;;;;;;5125661;28;20044;-66
2023/06/03 09:37:31;;;;;;;1.25;0.50;;;21.30;33.60;;;;;;5125593;28;20056;-66
2023/06/03 09:39:57;;;;;;;1.55;0.60;;;21.50;31.90;;;;;;5074461;28;20075;-66
2023/06/03 09:42:23;;;;;;;4.55;1.10;;;21.50;32.40;;;;;;5125273;28;20072;-65
2023/06/03 09:44:49;;;;;;;3.80;0.68;;;21.60;31.70;;;;;;5091352;28;20051;-65
2023/06/03 09:47:16;;;;;;;3.03;0.80;;;21.60;31.70;;;;;;5091676;28;20490;-65
2023/06/03 09:50:03;;;;;;;1.80;0.73;;;21.70;31.80;;;;;;5091540;28;20048;-65
2023/06/03 09:52:36;;;;;;;1.48;0.75;;;21.70;32.20;;;;;;5090988;28;20121;-65
2023/06/03 09:55:07;;;;;;;2.33;0.70;;;21.90;32.40;;;;;;5077766;28;20056;-65
2023/06/03 09:57:33;;;;;;;2.45;0.93;;;21.90;31.90;;;;;;5095522;28;20040;-66
2023/06/03 10:00:07;;;;;;;2.03;0.70;;;21.90;31.50;;;;;;5129929;27;20062;-66
2023/06/03 10:02:34;;;;;;;;;;;22.00;30.60;;;;;;5130297;27;20035;-66
2023/06/03 10:05:00;;;;;;;2.15;0.75;;;22.00;30.70;;;;;;5094985;28;19923;-66
2023/06/03 10:07:26;;;;;;;2.53;0.70;;;21.90;31.00;;;;;;5094106;28;20241;-66
2023/06/03 10:10:03;;;;;;;1.80;0.47;;;22.00;31.00;;;;;;5095093;28;20119;-66
2023/06/03 10:12:30;;;;;;;1.88;0.70;;;22.00;31.80;;;;;;5095172;28;20483;-69
2023/06/03 10:15:00;;;;;;;3.28;0.60;;;22.10;31.60;;;;;;5078032;28;20602;-70
2023/06/03 10:17:26;;;;;;;2.72;0.90;;;22.20;31.50;;;;;;5117258;27;20430;-69
2023/06/03 10:19:52;;;;;;;4.90;0.60;;;22.30;30.80;;;;;;5094744;28;20098;-69
2023/06/03 10:22:19;;;;;;;1.35;0.60;;;22.30;30.00;;;;;;5095069;28;20394;-69
2023/06/03 10:24:49;;;;;;;3.10;0.65;;;22.20;30.00;;;;;;5094849;28;20054;-69
2023/06/03 10:27:17;;;;;;;5.57;0.70;;;22.20;29.90;;;;;;5095226;28;20433;-69
2023/06/03 10:29:43;;;;;;;1.13;0.70;;;22.20;30.00;;;;;;5094692;28;20044;-69
2023/06/03 10:32:14;;;;;;;2.40;0.70;;;22.10;30.30;;;;;;5094640;28;20040;-69
2023/06/03 10:34:41;;;;;;;1.02;0.55;;;22.10;30.40;;;;;;5094578;28;20440;-69
2023/06/03 10:37:09;;;;;;;4.53;1.13;;;22.10;30.00;;;;;;5121291;27;20044;-69
2023/06/03 10:39:34;;;;;;;0.93;0.60;;;22.20;30.30;;;;;;5074423;28;20567;-69
2023/06/03 10:42:02;;;;;;;2.55;1.00;;;22.20;30.00;;;;;;5078631;28;20178;-69
2023/06/03 10:44:29;;;;;;;3.15;0.80;;;22.30;30.20;;;;;;5128801;27;20380;-69
2023/06/03 10:47:26;;;;;;;6.13;0.60;;;22.30;30.20;;;;;;5095368;28;20123;-69
2023/06/03 10:50:04;;;;;;;1.48;0.70;;;22.30;30.20;;;;;;5112546;27;20087;-69
2023/06/03 10:52:48;;;;;;;2.05;0.60;;;22.20;30.00;;;;;;5082426;28;20074;-69
2023/06/03 10:55:13;;;;;;;4.07;0.80;;;22.20;30.00;;;;;;5123992;27;20040;-69
2023/06/03 10:57:46;;;;;;;3.58;0.80;;;22.10;29.80;;;;;;5128392;27;20051;-69
2023/06/03 11:00:12;;;;;;;1.70;0.70;;;22.10;29.60;;;;;;5128279;27;20085;-69
2023/06/03 11:03:08;;;;;;;1.65;0.50;;;22.10;29.90;;;;;;5119896;27;20055;-70
2023/06/03 11:05:34;;;;;;;1.60;0.70;;;22.10;30.30;;;;;;5108606;27;20377;-69
2023/06/03 11:08:00;;;;;;;2.60;0.80;;;22.20;30.30;;;;;;5091047;28;20051;-69
2023/06/03 11:10:42;;;;;;;2.80;0.70;;;22.30;30.80;;;;;;5073669;28;20395;-69
2023/06/03 11:13:10;;;;;;;4.07;0.90;;;22.40;30.80;;;;;;5102933;28;20036;-69
2023/06/03 11:16:02;;;;;;;4.85;0.70;;;22.50;30.50;;;;;;5077242;28;20038;-70
2023/06/03 11:18:29;;;;;;;2.20;0.80;;;22.60;30.40;;;;;;5093398;28;20032;-70
2023/06/03 11:20:56;;;;;;;3.78;0.77;;;22.60;30.30;;;;;;5076782;28;20171;-69
2023/06/03 11:23:42;;;;;;;3.83;0.70;;;22.50;30.80;;;;;;5076110;28;20491;-69
2023/06/03 11:26:33;;;;;;;3.42;0.60;;;22.50;30.00;;;;;;5110493;28;20036;-69
2023/06/03 11:29:00;;;;;;;2.78;0.80;;;22.40;30.30;;;;;;5127377;27;20105;-69
2023/06/03 11:31:27;;;;;;;1.45;0.55;;;22.30;30.80;;;;;;5125698;27;20044;-70
2023/06/03 11:34:20;;;;;;;1.60;0.77;;;22.20;30.70;;;;;;5071958;28;20064;-70
2023/06/03 11:36:52;;;;;;;2.22;0.77;;;22.30;30.90;;;;;;5082978;28;20181;-70
2023/06/03 11:39:19;;;;;;;2.13;0.80;;;22.40;31.60;;;;;;5112467;27;20446;-70
2023/06/03 11:42:06;;;;;;;2.45;0.77;;;22.50;31.80;;;;;;5102213;28;20051;-69
2023/06/03 11:44:33;;;;;;;2.65;1.30;;;22.60;30.40;;;;;;5086443;28;20059;-69
2023/06/03 11:46:58;;;;;;;2.42;0.80;;;22.40;30.00;;;;;;5114801;27;20154;-69
2023/06/03 11:49:24;;;;;;;5.20;0.77;;;22.30;30.00;;;;;;5087302;28;20314;-70
2023/06/03 11:51:55;;;;;;;3.42;0.70;;;22.20;30.50;;;;;;5119280;27;20074;-70
2023/06/03 11:54:21;;;;;;;4.53;0.93;;;22.30;31.10;;;;;;5093040;28;20052;-70
2023/06/03 11:56:59;;;;;;;2.15;0.63;;;22.30;30.70;;;;;;5127321;27;20043;-70
2023/06/03 11:59:30;;;;;;;4.55;0.57;;;22.40;30.20;;;;;;5076586;28;20523;-70
2023/06/03 12:01:58;;;;;;;6.60;0.80;;;22.40;29.80;;;;;;5107137;27;20051;-69
2023/06/03 12:04:23;;;;;;;4.32;0.85;;;22.40;29.60;;;;;;5088670;28;20047;-70
2023/06/03 12:06:49;;;;;;;1.98;0.70;;;22.40;30.10;;;;;;5092989;28;20138;-69
2023/06/03 12:09:23;;;;;;;2.88;0.60;;;22.30;29.80;;;;;;5092537;28;20086;-70
2023/06/03 12:11:49;;;;;;;;;;;22.20;30.00;;;;;;5092535;28;20044;-70
2023/06/03 12:14:32;;;;;;;3.30;1.13;;;22.20;30.60;;;;;;5075906;28;19961;-70
2023/06/03 12:17:14;;;;;;;2.33;0.80;;;22.30;30.20;;;;;;5092286;28;20122;-71
2023/06/03 12:19:48;;;;;;;2.60;0.73;;;22.30;30.30;;;;;;5072421;28;20076;-71
2023/06/03 12:22:20;;;;;;;2.60;0.93;;;22.40;30.20;;;;;;5106210;28;20558;-70
2023/06/03 12:24:46;;;;;;;1.42;0.73;;;22.40;30.40;;;;;;5072392;28;20083;-70
2023/06/03 12:27:22;;;;;;;4.22;0.77;;;22.50;30.20;;;;;;5089406;28;20072;-69
2023/06/03 12:29:57;;;;;;;2.63;0.90;;;22.60;30.50;;;;;;5126216;27;20048;-70
2023/06/03 12:32:25;;;;;;;5.03;1.05;;;22.60;30.50;;;;;;5075538;28;20036;-70
2023/06/03 12:34:51;;;;;;;3.08;0.80;;;22.70;30.20;;;;;;5118349;27;20079;-70
2023/06/03 12:37:28;;;;;;;3.28;1.00;;;22.70;30.00;;;;;;5071946;28;20484;-70
2023/06/03 12:39:55;;;;;;;2.85;0.90;;;22.80;30.00;;;;;;5072101;28;20048;-69
2023/06/03 12:42:34;;;;;;;3.25;0.98;;;22.70;30.00;;;;;;5072379;28;20133;-69
2023/06/03 12:45:00;;;;;;;2.88;0.80;;;22.70;30.00;;;;;;5083368;28;20100;-69
2023/06/03 12:47:25;;;;;;;3.22;0.90;;;22.60;30.00;;;;;;5075462;28;20048;-69
2023/06/03 12:50:06;;;;;;;5.32;0.88;;;22.60;30.20;;;;;;5092008;28;20464;-69
2023/06/03 12:52:34;;;;;;;4.95;1.10;;;22.60;30.40;;;;;;5092002;28;20058;-69
2023/06/03 12:55:01;;;;;;;3.55;1.10;;;22.60;30.40;;;;;;5126512;27;20055;-70
2023/06/03 12:57:27;;;;;;;1.92;0.98;;;22.60;31.10;;;;;;5126331;27;20040;-69